createdAt,value
2022-12-14T00:01:09.073Z,37.65
2022-12-14T00:04:11.662Z,35.70
2022-12-14T00:07:14.140Z,34.75
2022-12-14T00:10:16.844Z,38.90
2022-12-14T00:13:19.393Z,30.08
2022-12-14T00:16:24.738Z,34.83
2022-12-14T00:19:27.769Z,36.03
2022-12-14T00:22:30.315Z,35.42
2022-12-14T00:25:32.831Z,35.73
2022-12-14T00:28:35.861Z,39.60
2022-12-14T00:31:39.844Z,34.45
2022-12-14T00:34:42.488Z,43.42
2022-12-14T00:37:45.638Z,42.20
2022-12-14T00:40:51.776Z,36.63
2022-12-14T00:43:54.309Z,36.22
2022-12-14T00:46:58.216Z,41.00
2022-12-14T00:50:00.807Z,34.17
2022-12-14T00:53:03.480Z,38.10
2022-12-14T00:56:07.646Z,38.83
2022-12-14T00:59:10.187Z,33.28
2022-12-14T01:02:14.149Z,34.80
2022-12-14T01:05:17.149Z,37.25
2022-12-14T01:08:19.676Z,33.83
2022-12-14T01:11:22.285Z,35.10
2022-12-14T01:14:24.841Z,31.35
2022-12-14T01:17:28.778Z,32.30
2022-12-14T01:20:31.325Z,34.78
2022-12-14T01:23:33.881Z,33.67
2022-12-14T01:26:39.644Z,31.47
2022-12-14T01:29:42.273Z,32.30
2022-12-14T01:32:46.256Z,27.70
2022-12-14T01:35:48.803Z,31.88
2022-12-14T01:38:54.119Z,31.35
2022-12-14T01:41:56.727Z,28.40
2022-12-14T01:44:59.294Z,27.15
2022-12-14T01:48:04.259Z,32.97
2022-12-14T01:51:06.821Z,33.78
2022-12-14T01:54:13.010Z,34.05
2022-12-14T01:57:19.143Z,33.73
2022-12-14T02:00:21.752Z,31.75
2022-12-14T02:03:28.568Z,36.38
2022-12-14T02:06:35.621Z,39.05
2022-12-14T02:09:41.502Z,36.55
2022-12-14T02:12:47.997Z,35.90
2022-12-14T02:15:51.271Z,34.03
2022-12-14T02:18:55.323Z,34.50
2022-12-14T02:22:23.806Z,32.35
2022-12-14T02:26:09.075Z,36.03
2022-12-14T02:29:39.134Z,29.80
2022-12-14T02:33:07.676Z,35.38
2022-12-14T02:36:17.820Z,35.30
2022-12-14T02:39:32.529Z,36.72
2022-12-14T02:42:46.009Z,34.72
2022-12-14T02:46:18.539Z,33.13
2022-12-14T02:49:38.391Z,32.10
2022-12-14T02:52:51.724Z,30.65
2022-12-14T02:55:57.570Z,37.58
2022-12-14T02:59:02.607Z,35.00
2022-12-14T03:02:07.474Z,36.73
2022-12-14T03:05:10.891Z,32.80
2022-12-14T03:08:15.825Z,31.73
2022-12-14T03:11:21.772Z,28.10
2022-12-14T03:14:29.015Z,28.08
2022-12-14T03:17:34.357Z,28.37
2022-12-14T03:20:39.162Z,26.73
2022-12-14T03:23:48.707Z,24.02
2022-12-14T03:26:56.376Z,25.25
2022-12-14T03:30:04.249Z,27.45
2022-12-14T03:33:13.504Z,21.13
2022-12-14T03:36:21.931Z,20.65
2022-12-14T03:39:30.110Z,22.33
2022-12-14T03:42:37.780Z,23.35
2022-12-14T03:45:47.028Z,21.30
2022-12-14T03:48:55.433Z,23.13
2022-12-14T03:52:03.058Z,23.13
2022-12-14T03:55:20.240Z,24.58
2022-12-14T03:58:34.625Z,25.42
2022-12-14T04:01:46.704Z,22.65
2022-12-14T04:04:57.528Z,27.17
2022-12-14T04:08:05.447Z,24.38
2022-12-14T04:11:30.376Z,21.88
2022-12-14T04:14:55.442Z,21.45
2022-12-14T04:18:22.612Z,17.33
2022-12-14T04:21:35.437Z,18.07
2022-12-14T04:25:01.649Z,19.17
2022-12-14T04:28:29.648Z,18.30
2022-12-14T04:31:34.550Z,21.17
2022-12-14T04:34:41.176Z,22.70
2022-12-14T04:37:49.715Z,16.57
2022-12-14T04:40:55.701Z,17.60
2022-12-14T04:44:02.333Z,15.98
2022-12-14T04:47:09.345Z,23.05
2022-12-14T04:50:18.377Z,21.60
2022-12-14T04:53:44.134Z,20.00
2022-12-14T04:56:51.079Z,26.08
2022-12-14T04:59:55.104Z,26.27
2022-12-14T05:03:16.891Z,24.17
2022-12-14T05:06:27.165Z,24.15
2022-12-14T05:09:33.921Z,22.23
2022-12-14T05:12:40.748Z,25.58
2022-12-14T05:15:46.282Z,26.60
2022-12-14T05:18:49.083Z,24.40
2022-12-14T05:21:51.708Z,24.50
2022-12-14T05:24:55.708Z,25.00
2022-12-14T05:27:58.314Z,25.45
2022-12-14T05:31:01.014Z,22.70
2022-12-14T05:34:03.875Z,20.98
2022-12-14T05:37:06.497Z,23.92
2022-12-14T05:40:11.844Z,27.20
2022-12-14T05:43:14.515Z,24.23
2022-12-14T05:46:17.225Z,23.85
2022-12-14T05:49:20.082Z,22.10
2022-12-14T05:52:25.807Z,24.52
2022-12-14T05:55:29.780Z,21.67
2022-12-14T05:58:32.968Z,27.08
2022-12-14T06:01:35.845Z,50.78
2022-12-14T06:04:38.531Z,28.67
2022-12-14T06:07:41.135Z,23.85
2022-12-14T06:10:45.060Z,27.40
2022-12-14T06:13:49.416Z,30.98
2022-12-14T06:16:52.339Z,25.65
2022-12-14T06:19:54.983Z,24.98
2022-12-14T06:22:57.521Z,25.60
2022-12-14T06:26:01.544Z,29.03
2022-12-14T06:29:07.420Z,33.88
2022-12-14T06:32:10.160Z,27.05
2022-12-14T06:35:13.479Z,27.65
2022-12-14T06:38:17.371Z,24.58
2022-12-14T06:41:23.949Z,26.13
2022-12-14T06:44:26.839Z,26.38
2022-12-14T06:47:30.121Z,27.88
2022-12-14T06:50:32.907Z,23.50
2022-12-14T06:53:36.623Z,28.80
2022-12-14T06:56:41.637Z,26.87
2022-12-14T06:59:50.512Z,29.00
2022-12-14T07:02:53.855Z,30.55
2022-12-14T07:05:57.015Z,27.00
2022-12-14T07:09:00.351Z,25.25
2022-12-14T07:12:07.665Z,27.63
2022-12-14T07:15:11.344Z,35.15
2022-12-14T07:18:14.046Z,30.35
2022-12-14T07:21:19.011Z,31.48
2022-12-14T07:24:22.188Z,33.90
2022-12-14T07:27:29.175Z,37.90
2022-12-14T07:30:33.148Z,38.50
2022-12-14T07:33:36.078Z,41.92
2022-12-14T07:36:39.575Z,29.55
2022-12-14T07:39:42.954Z,35.50
2022-12-14T07:42:50.359Z,28.63
2022-12-14T07:46:00.007Z,29.95
2022-12-14T07:49:04.172Z,27.25
2022-12-14T07:52:06.906Z,35.20
2022-12-14T07:55:11.056Z,37.25
2022-12-14T07:58:15.319Z,26.67
2022-12-14T08:01:22.359Z,30.20
2022-12-14T08:04:25.220Z,22.65
2022-12-14T08:07:30.104Z,24.23
2022-12-14T08:10:38.620Z,34.42
2022-12-14T08:13:44.746Z,39.10
2022-12-14T08:16:49.059Z,28.88
2022-12-14T08:19:52.132Z,50.22
2022-12-14T08:22:55.747Z,31.13
2022-12-14T08:25:59.684Z,38.28
2022-12-14T08:29:06.134Z,30.43
2022-12-14T08:32:08.908Z,26.50
2022-12-14T08:35:11.541Z,28.77
2022-12-14T08:38:15.447Z,32.15
2022-12-14T08:41:20.753Z,38.83
2022-12-14T08:44:30.353Z,28.30
2022-12-14T08:47:32.891Z,46.88
2022-12-14T08:50:39.092Z,37.15
2022-12-14T08:53:41.754Z,36.03
2022-12-14T08:56:44.522Z,35.58
2022-12-14T09:00:01.321Z,26.97
2022-12-14T09:03:06.759Z,27.23
2022-12-14T09:06:11.911Z,32.50
2022-12-14T09:09:16.668Z,36.58
2022-12-14T09:12:20.746Z,29.67
2022-12-14T09:15:24.889Z,25.53
2022-12-14T09:18:28.726Z,25.60
2022-12-14T09:21:32.069Z,26.55
2022-12-14T09:24:34.973Z,24.70
2022-12-14T09:27:40.217Z,29.10
2022-12-14T09:30:46.245Z,25.60
2022-12-14T09:33:49.305Z,25.58
2022-12-14T09:36:53.075Z,31.73
2022-12-14T09:39:55.628Z,28.20
2022-12-14T09:43:04.703Z,27.23
2022-12-14T09:46:32.065Z,27.83
2022-12-14T09:49:40.618Z,26.80
2022-12-14T09:52:47.688Z,27.90
2022-12-14T09:55:52.719Z,31.02
2022-12-14T09:58:57.674Z,28.20
2022-12-14T10:02:30.950Z,23.83
2022-12-14T10:05:53.074Z,23.98
2022-12-14T10:09:09.373Z,26.67
2022-12-14T10:12:26.319Z,23.17
2022-12-14T10:15:40.009Z,22.10
2022-12-14T10:19:17.720Z,21.07
2022-12-14T10:22:23.357Z,25.52
2022-12-14T10:25:28.804Z,22.67
2022-12-14T10:28:45.030Z,26.98
2022-12-14T10:31:56.796Z,32.30
2022-12-14T10:35:11.198Z,30.47
2022-12-14T10:38:21.987Z,25.17
2022-12-14T10:41:49.627Z,26.83
2022-12-14T10:48:39.847Z,20.00
2022-12-14T10:51:47.661Z,22.57
2022-12-14T10:54:56.645Z,28.38
2022-12-14T10:57:59.396Z,24.35
2022-12-14T11:01:02.231Z,22.20
2022-12-14T11:04:07.187Z,24.38
2022-12-14T11:07:13.318Z,22.70
2022-12-14T11:10:17.422Z,21.48
2022-12-14T11:13:21.511Z,28.05
2022-12-14T11:16:32.054Z,28.45
2022-12-14T11:19:38.259Z,22.48
2022-12-14T11:22:45.885Z,24.87
2022-12-14T11:25:50.876Z,25.83
2022-12-14T11:28:56.425Z,27.13
2022-12-14T11:32:00.378Z,23.17
2022-12-14T11:35:05.929Z,23.33
2022-12-14T11:38:15.737Z,23.50
2022-12-14T11:41:21.344Z,23.20
2022-12-14T11:44:26.333Z,20.92
2022-12-14T11:47:29.269Z,21.40
2022-12-14T11:50:31.860Z,22.65
2022-12-14T11:53:38.720Z,25.77
2022-12-14T11:56:41.629Z,22.90
2022-12-14T11:59:47.588Z,22.67
2022-12-14T12:02:59.880Z,23.38
2022-12-14T12:06:05.987Z,23.02
2022-12-14T12:09:25.275Z,26.80
2022-12-14T12:12:28.110Z,21.33
2022-12-14T12:15:35.516Z,23.63
2022-12-14T12:18:46.239Z,25.45
2022-12-14T12:21:49.575Z,23.67
2022-12-14T12:25:24.889Z,29.27
2022-12-14T12:28:26.779Z,31.77
2022-12-14T12:31:34.494Z,27.90
2022-12-14T12:34:44.028Z,23.52
2022-12-14T12:37:52.985Z,27.42
2022-12-14T12:41:03.290Z,27.40
2022-12-14T12:44:19.879Z,28.90
2022-12-14T12:47:40.090Z,25.48
2022-12-14T12:50:57.213Z,26.65
2022-12-14T12:54:04.240Z,26.70
2022-12-14T12:57:12.440Z,32.00
2022-12-14T13:00:18.520Z,27.05
2022-12-14T13:03:25.220Z,22.13
2022-12-14T13:06:30.715Z,25.40
2022-12-14T13:09:41.264Z,28.02
2022-12-14T13:12:49.444Z,28.50
2022-12-14T13:15:54.457Z,25.65
2022-12-14T13:19:25.557Z,27.08
2022-12-14T13:22:28.681Z,25.95
2022-12-14T13:25:42.469Z,28.33
2022-12-14T13:28:59.064Z,43.20
2022-12-14T13:32:11.052Z,28.20
2022-12-14T13:35:37.267Z,33.55
2022-12-14T13:39:03.473Z,27.60
2022-12-14T13:42:10.245Z,25.95
2022-12-14T13:45:20.152Z,29.43
2022-12-14T13:48:24.477Z,26.20
2022-12-14T13:51:30.052Z,27.25
2022-12-14T13:54:37.502Z,28.00
2022-12-14T13:57:40.207Z,28.38
2022-12-14T14:00:56.448Z,31.23
2022-12-14T14:04:20.873Z,25.50
2022-12-14T14:07:50.592Z,30.58
2022-12-14T14:11:02.523Z,24.42
2022-12-14T14:14:25.356Z,26.70
2022-12-14T14:17:37.955Z,24.67
2022-12-14T14:20:42.798Z,24.77
2022-12-14T14:23:57.251Z,25.35
2022-12-14T14:27:11.437Z,26.85
2022-12-14T14:30:25.700Z,24.63
2022-12-14T14:33:48.630Z,58.83
2022-12-14T14:36:52.259Z,38.50
2022-12-14T14:40:10.222Z,32.70
2022-12-14T14:43:28.195Z,24.63
2022-12-14T14:46:36.515Z,27.80
2022-12-14T14:49:43.595Z,27.37
2022-12-14T14:53:27.933Z,26.15
2022-12-14T14:56:40.045Z,26.60
2022-12-14T14:59:51.070Z,30.73
2022-12-14T15:02:55.567Z,27.67
2022-12-14T15:06:00.684Z,31.67
2022-12-14T15:09:12.220Z,27.42
2022-12-14T15:12:29.461Z,29.73
2022-12-14T15:15:36.345Z,25.40
2022-12-14T15:18:39.774Z,25.67
2022-12-14T15:21:43.914Z,26.97
2022-12-14T15:24:49.511Z,28.90
2022-12-14T15:27:53.119Z,26.35
2022-12-14T15:30:57.603Z,25.58
2022-12-14T15:34:01.562Z,29.65
2022-12-14T15:37:05.560Z,27.10
2022-12-14T15:40:13.585Z,24.45
2022-12-14T15:43:18.418Z,24.23
2022-12-14T15:46:26.932Z,26.60
2022-12-14T15:49:32.177Z,26.85
2022-12-14T15:52:36.228Z,29.50
2022-12-14T15:55:41.618Z,23.17
2022-12-14T15:58:45.126Z,27.15
2022-12-14T16:01:54.227Z,29.23
2022-12-14T16:05:01.221Z,24.30
2022-12-14T16:08:08.226Z,27.83
2022-12-14T16:11:18.528Z,41.85
2022-12-14T16:14:25.740Z,28.60
2022-12-14T16:17:30.975Z,26.30
2022-12-14T16:20:37.024Z,34.40
2022-12-14T16:23:45.431Z,23.77
2022-12-14T16:26:56.589Z,27.90
2022-12-14T16:30:34.305Z,30.58
2022-12-14T16:33:39.258Z,34.72
2022-12-14T16:36:43.421Z,34.72
2022-12-14T16:39:49.893Z,48.00
2022-12-14T16:42:52.622Z,46.10
2022-12-14T16:46:08.661Z,52.28
2022-12-14T16:49:20.331Z,54.33
2022-12-14T16:52:26.833Z,39.67
2022-12-14T16:55:30.716Z,42.83
2022-12-14T16:58:34.991Z,39.65
2022-12-14T17:01:41.331Z,40.83
2022-12-14T17:04:44.111Z,37.75
2022-12-14T17:07:47.006Z,45.55
2022-12-14T17:10:51.443Z,65.43
2022-12-14T17:13:54.066Z,53.13
2022-12-14T17:17:00.184Z,41.28
2022-12-14T17:20:09.222Z,39.45
2022-12-14T17:23:17.186Z,36.30
2022-12-14T17:26:25.094Z,36.67
2022-12-14T17:29:30.167Z,34.88
2022-12-14T17:32:33.040Z,36.00
2022-12-14T17:35:35.903Z,37.45
2022-12-14T17:38:38.742Z,47.95
2022-12-14T17:41:44.942Z,39.07
2022-12-14T17:44:54.063Z,42.42
2022-12-14T17:47:57.204Z,40.78
2022-12-14T17:50:59.789Z,40.08
2022-12-14T17:54:02.669Z,38.97
2022-12-14T17:57:17.870Z,45.83
2022-12-14T18:00:42.845Z,46.22
2022-12-14T18:03:46.346Z,50.15
2022-12-14T18:06:49.095Z,45.58
2022-12-14T18:09:53.614Z,39.90
2022-12-14T18:12:57.796Z,39.13
2022-12-14T18:16:00.805Z,42.67
2022-12-14T18:19:03.752Z,42.20
2022-12-14T18:22:07.425Z,41.50
2022-12-14T18:25:26.523Z,41.30
2022-12-14T18:28:30.891Z,41.27
2022-12-14T18:31:36.480Z,36.75
2022-12-14T18:34:39.710Z,43.47
2022-12-14T18:37:42.575Z,40.42
2022-12-14T18:40:49.703Z,39.75
2022-12-14T18:43:55.701Z,56.43
2022-12-14T18:47:14.636Z,54.95
2022-12-14T18:50:22.247Z,70.55
2022-12-14T18:53:26.037Z,83.72
2022-12-14T18:56:29.247Z,56.63
2022-12-14T18:59:36.603Z,40.93
2022-12-14T19:02:43.966Z,36.63
2022-12-14T19:05:49.200Z,37.88
2022-12-14T19:08:52.192Z,38.17
2022-12-14T19:11:55.080Z,39.67
2022-12-14T19:14:59.381Z,45.43
2022-12-14T19:18:02.269Z,44.20
2022-12-14T19:21:05.794Z,50.38
2022-12-14T19:24:08.863Z,51.88
2022-12-14T19:27:13.204Z,39.58
2022-12-14T19:30:23.192Z,45.93
2022-12-14T19:33:27.117Z,46.50
2022-12-14T19:36:32.731Z,58.05
2022-12-14T19:39:35.654Z,52.35
2022-12-14T19:42:38.834Z,47.20
2022-12-14T19:45:48.778Z,44.80
2022-12-14T19:48:51.703Z,50.05
2022-12-14T19:51:54.552Z,44.35
2022-12-14T19:54:57.603Z,47.70
2022-12-14T19:58:00.713Z,47.92
2022-12-14T20:01:09.359Z,42.70
2022-12-14T20:04:12.347Z,42.05
2022-12-14T20:07:15.368Z,37.67
2022-12-14T20:10:18.599Z,37.33
2022-12-14T20:13:25.462Z,33.42
2022-12-14T20:16:29.443Z,31.00
2022-12-14T20:19:32.392Z,35.13
2022-12-14T20:22:38.614Z,36.25
2022-12-14T20:25:41.491Z,32.42
2022-12-14T20:28:47.468Z,31.33
2022-12-14T20:31:55.278Z,32.70
2022-12-14T20:34:58.336Z,33.05
2022-12-14T20:38:01.186Z,33.88
2022-12-14T20:41:05.478Z,33.63
2022-12-14T20:44:14.510Z,32.65
2022-12-14T20:47:19.829Z,35.13
2022-12-14T20:50:23.151Z,32.42
2022-12-14T20:53:26.136Z,31.40
2022-12-14T20:56:30.278Z,32.10
2022-12-14T20:59:32.992Z,33.30
2022-12-14T21:02:37.363Z,38.17
2022-12-14T21:05:40.860Z,32.90
2022-12-14T21:09:01.628Z,35.22
2022-12-14T21:12:21.669Z,35.95
2022-12-14T21:15:24.481Z,37.88
2022-12-14T21:18:28.786Z,34.40
2022-12-14T21:21:31.628Z,32.40
2022-12-14T21:27:59.060Z,32.90
2022-12-14T21:31:02.499Z,30.02
2022-12-14T21:34:08.006Z,27.40
2022-12-14T21:37:11.375Z,26.70
2022-12-14T21:40:34.391Z,28.17
2022-12-14T21:43:37.011Z,25.65
2022-12-14T21:46:40.084Z,25.23
2022-12-14T21:49:45.631Z,27.93
2022-12-14T21:52:48.421Z,26.17
2022-12-14T21:55:51.771Z,30.25
2022-12-14T21:58:54.391Z,31.02
2022-12-14T22:01:58.444Z,27.00
2022-12-14T22:05:02.447Z,37.40
2022-12-14T22:08:05.352Z,35.17
2022-12-14T22:11:10.852Z,28.08
2022-12-14T22:14:15.532Z,37.88
2022-12-14T22:17:18.241Z,40.15
2022-12-14T22:20:22.266Z,33.07
2022-12-14T22:23:24.852Z,21.52
2022-12-14T22:26:27.382Z,20.00
2022-12-14T22:29:29.939Z,15.77
2022-12-14T22:32:32.714Z,22.77
2022-12-14T22:35:36.605Z,17.40
2022-12-14T22:38:39.177Z,19.25
2022-12-14T22:41:42.085Z,18.00
2022-12-14T22:44:45.085Z,18.85
2022-12-14T22:47:48.071Z,15.57
2022-12-14T22:50:52.139Z,18.67
2022-12-14T22:53:55.184Z,19.02
2022-12-14T22:57:00.420Z,20.83
2022-12-14T23:00:11.689Z,18.35
2022-12-14T23:03:14.650Z,19.40
2022-12-14T23:06:18.749Z,21.13
2022-12-14T23:09:42.007Z,20.02
2022-12-14T23:13:02.946Z,20.05
2022-12-14T23:16:24.886Z,22.20
2022-12-14T23:19:46.147Z,18.63
2022-12-14T23:23:08.401Z,21.57
2022-12-14T23:26:29.327Z,21.98
2022-12-14T23:29:50.459Z,23.45
2022-12-14T23:33:11.331Z,24.35
2022-12-14T23:36:32.774Z,24.00
2022-12-14T23:39:55.439Z,25.03
2022-12-14T23:43:16.410Z,24.38
2022-12-14T23:46:37.666Z,23.52
2022-12-14T23:49:58.982Z,23.88
2022-12-14T23:53:23.195Z,23.30
2022-12-14T23:56:46.078Z,23.13
